Time;durP1;ratioP1;P1;durP2;ratioP2;P2;SDS_P1;SDS_P2;PMS_P1;PMS_P2;Temp;Humidity;BMP_temperature;BMP_pressure;BME280_temperature;BME280_humidity;BME280_pressure;Samples;Min_cycle;Max_cycle;Signal;HPM_P1;HPM_P2
2022/07/25 00:00:06;;;;;;;2.70;2.50;;;;;;;20.98;64.23;100985.69;4994914;28;20038;-84
2022/07/25 00:02:31;;;;;;;3.03;2.70;;;;;;;20.96;64.20;100984.94;4994818;28;20026;-84
2022/07/25 00:04:57;;;;;;;2.70;2.50;;;;;;;20.93;64.76;100975.41;4993965;28;20398;-85
2022/07/25 00:07:22;;;;;;;2.60;2.40;;;;;;;20.90;65.37;100972.94;4994491;28;20030;-84
2022/07/25 00:09:47;;;;;;;2.60;2.40;;;;;;;20.83;65.31;100967.16;4994137;28;20037;-84
2022/07/25 00:12:13;;;;;;;2.73;2.50;;;;;;;20.82;65.57;100961.97;4994049;28;20062;-84
2022/07/25 00:14:38;;;;;;;2.63;2.43;;;;;;;20.76;65.56;100963.16;5002395;23;20249;-85
2022/07/25 00:17:03;;;;;;;2.63;2.30;;;;;;;20.72;66.05;100955.50;4974319;28;20058;-84
2022/07/25 00:19:29;;;;;;;2.50;2.30;;;;;;;20.69;67.92;100956.53;4974640;28;20118;-85
2022/07/25 00:21:54;;;;;;;3.43;2.77;;;;;;;20.64;66.53;100955.91;4974531;28;20030;-84
2022/07/25 00:24:19;;;;;;;3.00;2.47;;;;;;;20.60;66.79;100954.41;4974691;28;20029;-84
2022/07/25 00:26:44;;;;;;;3.13;2.70;;;;;;;20.56;66.42;100953.69;4974473;28;20023;-85
2022/07/25 00:29:10;;;;;;;3.13;2.70;;;;;;;20.52;66.86;100952.19;4974857;28;20027;-84
2022/07/25 00:31:35;;;;;;;3.00;2.70;;;;;;;20.50;66.58;100948.78;4974875;28;20053;-84
2022/07/25 00:34:01;;;;;;;3.13;2.60;;;;;;;20.47;66.41;100947.19;4974022;28;20018;-84
2022/07/25 00:36:26;;;;;;;3.90;2.90;;;;;;;20.44;67.31;100936.78;4974828;28;20027;-84
2022/07/25 00:38:51;;;;;;;3.23;2.80;;;;;;;20.40;66.58;100937.88;4973588;28;20041;-84
2022/07/25 00:41:17;;;;;;;3.27;2.77;;;;;;;20.37;66.99;100938.06;4974934;28;20506;-85
2022/07/25 00:43:44;;;;;;;3.63;2.87;;;;;;;20.34;67.10;100932.97;4974451;28;20027;-84
2022/07/25 00:46:16;;;;;;;3.78;2.92;;;;;;;20.31;67.07;100926.09;4973699;28;20471;-84
2022/07/25 00:48:42;;;;;;;3.85;2.92;;;;;;;20.29;66.85;100924.44;4974539;28;20486;-84
2022/07/25 00:51:09;;;;;;;3.72;3.05;;;;;;;20.25;67.22;100923.78;4974298;28;20114;-84
2022/07/25 00:53:38;;;;;;;2.90;2.60;;;;;;;20.23;67.10;100924.81;4974171;28;20072;-84
2022/07/25 00:56:05;;;;;;;3.00;2.70;;;;;;;20.19;67.35;100918.84;4974172;28;20026;-84
2022/07/25 00:58:30;;;;;;;3.10;2.65;;;;;;;20.14;67.27;100920.88;4974474;28;20018;-84
2022/07/25 01:00:56;;;;;;;3.03;2.70;;;;;;;20.10;67.31;100919.34;4973822;28;20379;-84
2022/07/25 01:03:21;;;;;;;3.47;2.80;;;;;;;20.05;67.38;100917.81;4974277;28;20039;-84
2022/07/25 01:05:49;;;;;;;4.33;3.10;;;;;;;20.05;67.61;100917.81;4973981;28;20038;-84
2022/07/25 01:08:15;;;;;;;3.20;2.90;;;;;;;20.03;67.36;100906.50;4973759;28;20058;-84
2022/07/25 01:10:41;;;;;;;;;;;;;;;20.03;67.56;100913.56;4974405;28;20097;-84
2022/07/25 01:13:06;;;;;;;4.13;3.00;;;;;;;19.99;68.07;100904.97;4973887;28;19953;-84
2022/07/25 01:15:31;;;;;;;4.53;3.10;;;;;;;19.96;68.57;100891.97;4973588;28;20498;-84
2022/07/25 01:17:57;;;;;;;3.20;2.80;;;;;;;19.93;68.22;100891.28;4973834;28;20546;-84
2022/07/25 01:20:24;;;;;;;4.23;2.90;;;;;;;19.88;68.06;100887.13;4973882;28;20035;-84
2022/07/25 01:22:50;;;;;;;3.28;2.80;;;;;;;19.86;68.13;100882.88;4973243;28;20038;-84
2022/07/25 01:25:15;;;;;;;4.57;3.00;;;;;;;19.85;67.94;100883.78;4973711;28;20031;-84
2022/07/25 01:27:42;;;;;;;3.80;3.00;;;;;;;19.85;68.15;100887.25;4973523;28;20035;-84
2022/07/25 01:30:09;;;;;;;;;;;;;;;19.84;68.41;100884.69;4973815;28;20035;-84
2022/07/25 01:32:35;;;;;;;3.05;2.70;;;;;;;19.81;68.45;100872.56;4973993;28;19914;-84
2022/07/25 01:35:02;;;;;;;3.00;2.70;;;;;;;19.79;68.41;100877.06;4972254;28;20031;-84
2022/07/25 01:37:27;;;;;;;3.45;2.92;;;;;;;19.76;68.49;100878.03;4973991;28;20069;-84
2022/07/25 01:39:52;;;;;;;3.63;3.10;;;;;;;19.73;68.50;100872.97;4973329;28;20388;-84
2022/07/25 01:42:18;;;;;;;3.50;3.10;;;;;;;19.72;68.44;100867.75;4973234;28;20038;-84
2022/07/25 01:44:44;;;;;;;3.53;3.00;;;;;;;19.69;68.34;100860.88;4973767;28;20038;-84
2022/07/25 01:47:09;;;;;;;3.67;3.00;;;;;;;19.70;68.49;100864.38;4973564;28;20038;-84
2022/07/25 01:49:34;;;;;;;3.90;3.13;;;;;;;19.68;68.44;100861.81;4972583;28;20030;-84
2022/07/25 01:51:59;;;;;;;3.77;3.10;;;;;;;19.67;68.49;100856.63;4973211;28;20023;-84
2022/07/25 01:54:25;;;;;;;3.60;3.00;;;;;;;19.64;68.98;100851.53;4973720;28;20551;-84
2022/07/25 01:56:50;;;;;;;3.23;2.70;;;;;;;19.61;69.10;100847.28;4973236;28;20019;-84
2022/07/25 01:59:15;;;;;;;3.20;2.90;;;;;;;19.58;68.96;100844.81;4973764;28;20019;-84
2022/07/25 02:01:41;;;;;;;4.00;2.93;;;;;;;19.59;68.77;100846.50;4973639;28;20023;-84
2022/07/25 02:04:07;;;;;;;3.47;2.95;;;;;;;19.57;68.86;100838.72;4972714;28;20027;-84
2022/07/25 02:06:33;;;;;;;3.03;2.50;;;;;;;19.56;69.09;100839.63;4974040;28;20023;-84
2022/07/25 02:08:59;;;;;;;3.22;2.80;;;;;;;19.53;68.86;100831.06;4973042;28;20042;-85
2022/07/25 02:11:24;;;;;;;3.80;2.93;;;;;;;19.53;68.94;100828.44;4972938;28;20030;-84
2022/07/25 02:13:50;;;;;;;3.43;3.00;;;;;;;19.53;69.49;100829.25;4973353;28;20368;-84
2022/07/25 02:16:15;;;;;;;2.80;2.60;;;;;;;19.51;69.02;100828.50;4973264;28;20047;-85
2022/07/25 02:18:41;;;;;;;3.60;2.80;;;;;;;19.52;68.95;100827.56;4973000;28;20066;-84
2022/07/25 02:21:08;;;;;;;3.50;2.80;;;;;;;19.51;69.27;100823.22;4973351;28;20034;-84
2022/07/25 02:23:34;;;;;;;3.03;2.72;;;;;;;19.52;68.97;100824.94;4973421;28;20035;-84
2022/07/25 02:25:59;;;;;;;3.70;3.00;;;;;;;19.52;68.94;100826.72;4972965;28;20026;-84
2022/07/25 02:28:24;;;;;;;2.87;2.57;;;;;;;19.50;69.00;100824.16;4973794;28;20394;-84
2022/07/25 02:30:50;;;;;;;2.90;2.60;;;;;;;19.52;69.12;100829.34;4972890;28;20027;-84
2022/07/25 02:33:15;;;;;;;2.80;2.57;;;;;;;19.51;69.33;100823.22;4973100;28;20108;-84
2022/07/25 02:35:40;;;;;;;2.90;2.60;;;;;;;19.50;69.10;100820.69;4973588;28;20027;-84
2022/07/25 02:38:06;;;;;;;2.70;2.50;;;;;;;19.49;69.49;100816.34;4972969;28;20023;-84
2022/07/25 02:40:32;;;;;;;3.03;2.50;;;;;;;19.44;70.36;100812.16;4972238;28;20386;-84
2022/07/25 02:42:57;;;;;;;2.77;2.53;;;;;;;19.38;69.62;100809.88;4973081;28;20026;-84
2022/07/25 02:45:22;;;;;;;2.90;2.60;;;;;;;19.36;69.25;100805.63;4973100;28;20518;-84
2022/07/25 02:47:48;;;;;;;2.90;2.50;;;;;;;19.36;69.70;100803.00;4976988;28;20055;-84
2022/07/25 02:50:13;;;;;;;3.00;2.70;;;;;;;19.35;69.53;100810.03;4976860;28;20019;-84
2022/07/25 02:52:39;;;;;;;3.00;2.70;;;;;;;19.33;69.54;100798.72;4976266;28;20380;-84
2022/07/25 02:55:05;;;;;;;2.93;2.60;;;;;;;19.32;69.45;100801.47;4976674;28;20054;-84
2022/07/25 02:57:30;;;;;;;2.80;2.50;;;;;;;19.29;70.13;100795.41;4976144;28;20528;-84
2022/07/25 02:59:55;;;;;;;2.50;2.30;;;;;;;19.24;69.68;100799.22;4975859;28;20027;-84
2022/07/25 03:02:21;;;;;;;2.90;2.60;;;;;;;19.23;70.44;100797.53;4976402;28;20022;-84
2022/07/25 03:04:46;;;;;;;2.53;2.30;;;;;;;19.18;70.18;100800.41;4976483;28;20085;-84
2022/07/25 03:07:11;;;;;;;2.30;2.10;;;;;;;19.14;70.08;100796.22;4975568;28;20030;-84
2022/07/25 03:09:37;;;;;;;2.57;2.37;;;;;;;19.10;70.22;100792.91;4976132;28;20042;-84
2022/07/25 03:12:02;;;;;;;2.10;2.00;;;;;;;19.10;70.55;100786.81;4976043;28;20042;-84
2022/07/25 03:14:27;;;;;;;2.47;2.27;;;;;;;19.05;71.63;100778.28;4975489;28;20031;-84
2022/07/25 03:16:53;;;;;;;2.67;2.20;;;;;;;19.00;71.31;100778.53;4975850;28;20061;-83
2022/07/25 03:19:21;;;;;;;2.40;2.20;;;;;;;19.01;70.77;100772.34;4975825;28;20100;-84
2022/07/25 03:21:46;;;;;;;2.55;2.35;;;;;;;19.00;70.35;100773.25;4975748;28;20077;-84
2022/07/25 03:24:15;;;;;;;2.40;2.20;;;;;;;19.00;71.28;100769.81;4975773;28;20027;-83
2022/07/25 03:26:40;;;;;;;2.92;2.60;;;;;;;19.01;70.04;100768.88;4976080;28;20097;-83
2022/07/25 03:29:06;;;;;;;2.50;2.30;;;;;;;19.02;70.19;100768.78;4974953;28;20500;-84
2022/07/25 03:31:31;;;;;;;3.30;2.77;;;;;;;19.03;70.19;100767.03;4975892;28;20026;-84
2022/07/25 03:33:56;;;;;;;2.73;2.47;;;;;;;19.03;70.47;100764.38;4982040;23;20036;-84
2022/07/25 03:36:22;;;;;;;2.47;2.27;;;;;;;19.04;70.26;100768.69;4975448;28;20049;-84
2022/07/25 03:38:47;;;;;;;2.43;2.23;;;;;;;19.03;70.60;100764.38;4974751;28;20392;-84
2022/07/25 03:41:12;;;;;;;2.43;2.23;;;;;;;19.03;70.08;100767.84;4993437;28;20486;-84
2022/07/25 03:43:37;;;;;;;2.63;2.43;;;;;;;19.01;70.12;100763.63;4994590;28;20041;-84
2022/07/25 03:46:03;;;;;;;2.50;2.30;;;;;;;19.03;70.24;100765.22;4994849;28;20113;-84
2022/07/25 03:48:29;;;;;;;2.30;2.10;;;;;;;19.03;70.34;100767.03;4994815;28;20030;-84
2022/07/25 03:50:55;;;;;;;2.50;2.30;;;;;;;19.03;71.20;100767.03;4994586;28;20471;-85
2022/07/25 03:53:20;;;;;;;2.75;2.20;;;;;;;19.03;70.29;100764.38;4995327;28;20034;-85
2022/07/25 03:55:46;;;;;;;2.30;2.10;;;;;;;19.04;70.28;100766.06;4994453;28;20036;-84
2022/07/25 03:58:11;;;;;;;2.40;2.20;;;;;;;19.02;70.22;100763.53;4993937;28;20069;-85
2022/07/25 04:00:36;;;;;;;2.30;2.10;;;;;;;19.05;69.99;100762.50;4994904;28;20508;-84
2022/07/25 04:03:02;;;;;;;2.40;2.20;;;;;;;19.03;70.74;100759.97;4994263;28;20026;-84
2022/07/25 04:05:28;;;;;;;2.07;1.90;;;;;;;19.03;71.21;100746.81;4994909;28;20034;-85
2022/07/25 04:07:54;;;;;;;2.38;2.17;;;;;;;19.03;70.64;100753.88;4994515;28;20045;-83
2022/07/25 04:10:19;;;;;;;2.20;2.00;;;;;;;19.03;70.37;100743.34;4983222;28;20035;-80
2022/07/25 04:12:44;;;;;;;2.50;2.30;;;;;;;19.04;71.23;100745.03;4975378;28;20131;-81
2022/07/25 04:15:11;;;;;;;2.47;2.20;;;;;;;19.05;70.82;100747.59;4974781;28;20026;-81
2022/07/25 04:17:36;;;;;;;;;;;;;;;19.06;70.66;100751.06;4975123;28;20035;-81
2022/07/25 04:20:01;;;;;;;2.90;2.10;;;;;;;19.08;71.22;100747.41;4975272;28;19936;-81
2022/07/25 04:22:27;;;;;;;2.60;2.40;;;;;;;19.09;70.42;100750.91;4974825;28;20387;-81
2022/07/25 04:24:52;;;;;;;2.50;2.30;;;;;;;19.11;73.19;100746.41;4974584;28;20019;-81
2022/07/25 04:27:17;;;;;;;2.73;2.50;;;;;;;19.11;72.49;100747.25;4975009;28;20368;-81
2022/07/25 04:29:42;;;;;;;3.73;3.00;;;;;;;19.11;71.94;100749.03;4974935;28;20023;-84
2022/07/25 04:32:08;;;;;;;3.27;2.73;;;;;;;19.12;71.40;100740.22;4974044;28;20034;-83
2022/07/25 04:34:33;;;;;;;3.70;2.90;;;;;;;19.16;71.83;100739.13;4974713;28;20039;-83
2022/07/25 04:36:58;;;;;;;3.33;2.93;;;;;;;19.17;71.60;100740.81;4974129;28;20050;-84
2022/07/25 04:39:24;;;;;;;3.13;2.60;;;;;;;19.20;71.22;100752.94;4977169;28;20044;-84
2022/07/25 04:41:49;;;;;;;3.37;2.80;;;;;;;19.25;71.84;100753.56;4994391;28;20026;-83
2022/07/25 04:44:14;;;;;;;2.57;2.37;;;;;;;19.29;70.90;100755.13;4994126;28;20026;-84
2022/07/25 04:46:40;;;;;;;2.40;2.20;;;;;;;19.35;72.10;100754.78;4993561;28;20014;-83
2022/07/25 04:49:05;;;;;;;3.77;3.00;;;;;;;19.41;70.56;100743.94;4993622;28;20036;-84
2022/07/25 04:51:45;;;;;;;4.23;3.10;;;;;;;19.53;70.53;100750.31;4993043;28;20105;-84
2022/07/25 04:54:11;;;;;;;4.72;3.35;;;;;;;19.63;70.30;100742.75;4990868;28;20407;-83
2022/07/25 04:56:36;;;;;;;4.03;3.20;;;;;;;19.69;69.73;100738.94;4993567;28;20022;-84
2022/07/25 04:59:01;;;;;;;3.00;2.70;;;;;;;19.79;69.63;100728.72;4992690;28;20034;-84
2022/07/25 05:01:36;;;;;;;4.10;2.97;;;;;;;19.85;69.39;100737.13;4993894;28;20097;-84
2022/07/25 05:04:01;;;;;;;3.40;2.92;;;;;;;19.93;69.40;100747.28;4993018;28;20065;-84
2022/07/25 05:06:42;;;;;;;3.33;2.87;;;;;;;19.99;68.91;100732.91;4993018;28;20118;-84
2022/07/25 05:09:07;;;;;;;4.05;3.10;;;;;;;20.05;69.08;100737.81;4991965;28;20475;-84
2022/07/25 05:11:42;;;;;;;4.37;3.03;;;;;;;20.12;68.91;100740.94;4993251;28;20037;-84
2022/07/25 05:14:07;;;;;;;3.95;2.60;;;;;;;20.18;68.48;100738.81;5008384;23;20038;-83
2022/07/25 05:16:32;;;;;;;3.50;2.73;;;;;;;20.26;68.52;100743.66;5011462;28;20038;-84
2022/07/25 05:18:57;;;;;;;3.60;2.90;;;;;;;20.31;68.36;100746.03;5012515;28;20021;-84
2022/07/25 05:21:23;;;;;;;3.83;3.10;;;;;;;20.38;68.44;100749.97;5012325;28;20128;-84
2022/07/25 05:23:48;;;;;;;4.20;3.20;;;;;;;20.44;67.55;100752.28;5012938;28;20068;-84
2022/07/25 05:26:13;;;;;;;4.07;3.33;;;;;;;20.50;68.03;100749.28;5012834;28;20125;-84
2022/07/25 05:28:38;;;;;;;4.50;3.37;;;;;;;20.56;67.63;100742.78;5012540;28;20060;-84
2022/07/25 05:31:04;;;;;;;4.53;3.30;;;;;;;20.63;67.66;100748.56;5012741;28;20053;-84
2022/07/25 05:33:29;;;;;;;5.90;4.00;;;;;;;20.69;67.54;100748.22;5012913;28;20033;-84
2022/07/25 05:35:54;;;;;;;4.53;3.33;;;;;;;20.74;67.54;100751.44;5012102;28;20033;-83
2022/07/25 05:38:20;;;;;;;3.80;3.17;;;;;;;20.80;67.87;100745.81;5013111;28;20092;-84
2022/07/25 05:40:45;;;;;;;3.37;3.00;;;;;;;20.87;67.61;100748.94;5000965;28;20046;-83
2022/07/25 05:43:10;;;;;;;4.43;3.27;;;;;;;20.91;67.10;100752.22;4992575;28;20060;-83
2022/07/25 05:45:36;;;;;;;3.70;3.03;;;;;;;20.94;67.56;100755.50;4993127;28;20061;-83
2022/07/25 05:48:01;;;;;;;4.27;3.20;;;;;;;20.96;66.96;100755.41;4992724;28;20060;-83
2022/07/25 05:50:26;;;;;;;3.67;2.93;;;;;;;21.00;66.63;100751.66;4992767;28;20165;-85
2022/07/25 05:52:52;;;;;;;4.53;3.30;;;;;;;21.05;67.96;100760.16;4992928;28;20149;-83
2022/07/25 05:55:17;;;;;;;3.42;3.10;;;;;;;21.07;67.60;100757.41;4992681;28;20022;-83
2022/07/25 05:57:43;;;;;;;3.20;2.73;;;;;;;21.09;67.05;100752.91;4992976;28;20105;-84
2022/07/25 06:00:09;;;;;;;2.77;2.50;;;;;;;21.10;67.16;100759.88;4992876;28;20542;-84
2022/07/25 06:02:34;;;;;;;2.50;2.30;;;;;;;21.12;67.25;100763.25;4991379;28;20141;-84
2022/07/25 06:04:59;;;;;;;2.50;2.30;;;;;;;21.13;67.41;100772.84;5007384;28;20030;-86
2022/07/25 06:07:25;;;;;;;2.30;2.10;;;;;;;21.12;67.50;100774.66;5012483;28;20030;-85
2022/07/25 06:09:50;;;;;;;2.50;2.30;;;;;;;21.12;67.19;100777.28;5005525;28;20022;-85
2022/07/25 06:12:15;;;;;;;4.43;3.10;;;;;;;21.12;66.82;100787.00;4993237;28;20206;-85
2022/07/25 06:14:41;;;;;;;4.20;3.10;;;;;;;21.09;67.47;100782.75;4993018;28;20046;-85
2022/07/25 06:17:06;;;;;;;4.23;2.97;;;;;;;21.10;67.35;100781.81;4992264;28;20027;-85
2022/07/25 06:19:32;;;;;;;7.47;4.17;;;;;;;21.10;66.76;100768.63;4992656;28;20500;-85
2022/07/25 06:21:57;;;;;;;5.17;3.40;;;;;;;21.11;67.00;100775.59;4995449;28;20032;-85
2022/07/25 06:24:28;;;;;;;4.47;3.33;;;;;;;21.12;67.07;100777.28;4995889;28;20029;-83
2022/07/25 06:26:53;;;;;;;4.22;3.28;;;;;;;21.11;67.12;100774.75;4995992;28;20042;-85
2022/07/25 06:29:19;;;;;;;3.17;2.70;;;;;;;21.10;66.66;100783.63;4995063;28;20030;-84
2022/07/25 06:31:44;;;;;;;3.30;2.60;;;;;;;21.09;66.69;100780.13;4995192;28;20085;-84
2022/07/25 06:34:09;;;;;;;3.73;2.80;;;;;;;21.13;66.60;100775.50;4996026;28;20022;-85
2022/07/25 06:36:35;;;;;;;3.17;2.73;;;;;;;21.16;67.18;100783.22;4995972;28;20117;-84
2022/07/25 06:39:00;;;;;;;2.70;2.50;;;;;;;21.27;67.54;100790.50;4995627;28;20030;-85
2022/07/25 06:41:26;;;;;;;2.60;2.40;;;;;;;21.33;67.29;100786.63;4997317;28;20062;-84
2022/07/25 06:43:51;;;;;;;2.60;2.40;;;;;;;21.38;66.43;100784.56;4995867;28;20026;-84
2022/07/25 06:46:16;;;;;;;2.13;2.00;;;;;;;21.41;67.04;100792.28;4995788;28;20022;-85
2022/07/25 06:48:41;;;;;;;2.27;2.07;;;;;;;21.42;66.53;100789.53;4997468;28;20049;-84
2022/07/25 06:51:07;;;;;;;2.23;2.03;;;;;;;21.45;66.77;100789.34;4995800;28;20414;-85
2022/07/25 06:53:48;;;;;;;1.85;1.75;;;;;;;21.50;66.96;100790.88;4994852;28;20022;-85
2022/07/25 06:56:14;;;;;;;1.90;1.80;;;;;;;21.54;66.61;100787.94;4996051;28;20110;-85
2022/07/25 06:58:39;;;;;;;1.77;1.67;;;;;;;21.57;66.47;100786.91;4996837;28;20439;-85
2022/07/25 07:01:04;;;;;;;1.20;1.20;;;;;;;21.57;66.45;100778.97;4996184;28;20026;-85
2022/07/25 07:03:31;;;;;;;2.67;1.80;;;;;;;21.55;66.35;100779.09;4995717;28;20026;-85
2022/07/25 07:05:56;;;;;;;1.80;1.70;;;;;;;21.54;65.98;100787.09;4995496;28;20418;-84
2022/07/25 07:08:22;;;;;;;1.80;1.67;;;;;;;21.56;66.28;100775.47;4996841;28;20034;-84
2022/07/25 07:10:47;;;;;;;1.77;1.67;;;;;;;21.60;66.06;100790.22;5007053;28;20022;-85
2022/07/25 07:13:38;;;;;;;1.47;1.37;;;;;;;21.61;66.28;100785.81;5014790;28;20022;-84
2022/07/25 07:16:04;;;;;;;1.42;1.33;;;;;;;21.62;66.38;100782.19;5010078;28;20486;-84
2022/07/25 07:18:45;;;;;;;1.60;1.50;;;;;;;21.65;66.60;100781.16;5014900;28;20065;-85
2022/07/25 07:21:10;;;;;;;1.42;1.40;;;;;;;21.68;66.59;100781.81;5013225;28;20045;-85
2022/07/25 07:23:35;;;;;;;1.20;1.20;;;;;;;21.73;66.09;100782.34;5015535;28;20021;-85
2022/07/25 07:26:01;;;;;;;1.20;1.20;;;;;;;21.80;66.25;100780.19;5014967;28;20113;-85
2022/07/25 07:28:26;;;;;;;1.43;1.33;;;;;;;21.90;66.15;100776.00;4995908;28;20387;-85
2022/07/25 07:31:07;;;;;;;1.20;1.20;;;;;;;21.98;66.58;100780.78;4995272;28;20027;-85
2022/07/25 07:33:32;;;;;;;1.55;1.45;;;;;;;22.03;66.96;100780.50;4995380;28;20073;-85
2022/07/25 07:35:58;;;;;;;1.90;1.70;;;;;;;22.09;66.22;100773.97;4994848;28;20490;-84
2022/07/25 07:38:24;;;;;;;1.40;1.30;;;;;;;22.18;65.58;100776.88;4995399;28;20471;-84
2022/07/25 07:40:50;;;;;;;1.50;1.40;;;;;;;22.28;65.76;100778.91;5006078;28;20029;-85
2022/07/25 07:43:15;;;;;;;1.63;1.52;;;;;;;22.31;66.73;100782.19;5014980;28;20415;-85
2022/07/25 07:45:41;;;;;;;1.33;1.23;;;;;;;22.32;65.98;100788.34;5014631;28;20022;-84
2022/07/25 07:48:07;;;;;;;1.20;1.20;;;;;;;22.32;66.05;100786.53;5013949;28;20057;-86
2022/07/25 07:50:32;;;;;;;1.10;1.10;;;;;;;22.33;65.92;100792.69;5014976;28;20577;-85
2022/07/25 07:52:58;;;;;;;1.48;1.40;;;;;;;22.36;65.43;100790.66;5014375;28;20018;-85
2022/07/25 07:58:07;;;;;;;1.85;1.35;;;;;;;22.64;66.26;100794.13;5014730;28;20044;-85
2022/07/25 08:00:35;;;;;;;1.13;1.13;;;;;;;22.93;65.07;100799.28;5014416;28;20026;-85
2022/07/25 08:03:02;;;;;;;1.23;1.20;;;;;;;23.17;65.96;100797.66;5013857;28;20021;-85
2022/07/25 08:05:31;;;;;;;1.48;1.35;;;;;;;23.34;65.06;100799.19;5013043;28;20164;-85
2022/07/25 08:07:58;;;;;;;1.70;1.60;;;;;;;23.46;64.57;100800.13;5013968;28;20030;-85
2022/07/25 08:10:25;;;;;;;;;;;;;;;23.57;64.94;100795.75;5006299;28;20034;-86
2022/07/25 08:12:58;;;;;;;1.50;1.40;;;;;;;23.71;64.18;100793.91;4994272;28;19920;-85
2022/07/25 08:15:24;;;;;;;1.50;1.40;;;;;;;23.88;64.81;100798.00;4994381;28;20487;-86
2022/07/25 08:18:14;;;;;;;2.42;1.30;;;;;;;24.17;64.64;100800.34;4993779;28;20030;-85
2022/07/25 08:20:45;;;;;;;1.38;1.10;;;;;;;24.48;63.87;100790.13;4994607;28;20685;-86
2022/07/25 08:23:11;;;;;;;1.20;1.17;;;;;;;24.62;63.26;100802.34;4993950;28;20027;-87
2022/07/25 08:25:50;;;;;;;1.27;1.20;;;;;;;24.60;62.90;100793.66;4994371;28;20034;-86
2022/07/25 08:28:15;;;;;;;1.00;1.00;;;;;;;24.62;62.29;100799.69;4994428;28;20054;-85
2022/07/25 08:30:41;;;;;;;2.37;1.40;;;;;;;24.59;62.30;100798.13;5001667;28;20470;-86
2022/07/25 08:33:19;;;;;;;;;;;;;;;;;;;;;
2022/07/25 08:35:53;;;;;;;1.23;1.15;;;;;;;24.43;62.38;100805.53;5007647;28;20038;-86
2022/07/25 08:38:34;;;;;;;1.30;1.20;;;;;;;24.37;62.35;100804.19;5013519;28;20418;-86
2022/07/25 08:41:01;;;;;;;1.30;0.80;;;;;;;24.34;63.08;100812.38;5013501;28;20029;-86
2022/07/25 08:43:40;;;;;;;0.82;0.73;;;;;;;24.50;62.56;100804.09;5013304;28;20034;-86
2022/07/25 08:46:06;;;;;;;2.05;1.00;;;;;;;24.73;62.41;100812.16;5013031;28;20034;-86
2022/07/25 08:48:31;;;;;;;1.42;0.93;;;;;;;25.02;62.37;100812.59;5013496;28;20026;-86
2022/07/25 08:50:58;;;;;;;1.20;0.70;;;;;;;25.24;62.02;100816.22;4995076;28;20033;-93
2022/07/25 08:53:24;;;;;;;0.60;0.60;;;;;;;25.41;61.44;100805.19;4994465;28;20037;-88
2022/07/25 08:55:58;;;;;;;1.35;0.95;;;;;;;25.51;60.53;100799.13;4993770;28;20398;-86
2022/07/25 08:58:23;;;;;;;0.75;0.75;;;;;;;25.52;59.74;100808.78;4993892;28;20030;-86
2022/07/25 09:00:48;;;;;;;1.27;1.00;;;;;;;25.60;60.39;100811.69;4995193;28;20026;-88
2022/07/25 09:03:14;;;;;;;1.37;1.17;;;;;;;25.63;59.57;100821.22;4994276;28;20533;-85
2022/07/25 09:05:40;;;;;;;0.70;0.70;;;;;;;25.59;59.28;100816.16;4994373;28;20598;-87
2022/07/25 09:08:20;;;;;;;2.00;1.20;;;;;;;25.43;59.84;100821.84;4993591;28;20035;-85
2022/07/25 09:10:51;;;;;;;1.25;1.15;;;;;;;25.49;59.53;100822.31;4998600;28;20169;-86
2022/07/25 09:13:18;;;;;;;2.53;1.50;;;;;;;25.61;59.00;100809.88;4993370;28;20073;-85
2022/07/25 09:15:59;;;;;;;1.70;1.17;;;;;;;25.78;58.86;100820.00;5000475;28;20509;-85
2022/07/25 09:18:26;;;;;;;1.65;1.00;;;;;;;25.91;59.43;100817.19;5008676;28;20104;-86
2022/07/25 09:20:57;;;;;;;1.25;1.08;;;;;;;26.07;59.75;100824.75;4992914;28;20061;-86
2022/07/25 09:23:31;;;;;;;0.70;0.70;;;;;;;26.27;59.41;100822.31;4993564;28;20038;-86
2022/07/25 09:26:08;;;;;;;1.00;0.90;;;;;;;26.41;59.58;100816.69;4993243;28;20023;-85
2022/07/25 09:28:41;;;;;;;1.20;0.80;;;;;;;26.49;58.24;100818.72;5005787;28;20485;-86
2022/07/25 09:31:08;;;;;;;1.13;1.00;;;;;;;26.58;57.93;100823.25;5010453;28;20029;-88
2022/07/25 09:33:43;;;;;;;1.20;1.10;;;;;;;26.51;57.11;100825.59;5012585;28;20510;-86
2022/07/25 09:36:10;;;;;;;1.60;1.27;;;;;;;26.43;57.62;100832.53;5012948;28;20068;-86
2022/07/25 09:38:36;;;;;;;2.92;1.65;;;;;;;26.35;57.26;100839.31;5012596;28;20375;-86
2022/07/25 09:41:01;;;;;;;3.33;1.40;;;;;;;26.24;57.41;100841.19;5012281;28;20026;-86
2022/07/25 09:43:36;;;;;;;4.20;1.57;;;;;;;26.12;57.51;100849.19;5013043;28;20634;-87
2022/07/25 09:46:02;;;;;;;1.47;1.37;;;;;;;26.14;55.53;100846.41;5012446;28;20372;-86
2022/07/25 09:48:27;;;;;;;3.97;1.60;;;;;;;26.19;56.44;100857.53;5012400;28;20117;-87
2022/07/25 09:50:53;;;;;;;3.77;2.10;;;;;;;26.32;55.33;100866.19;5011960;28;20030;-87
2022/07/25 09:53:19;;;;;;;2.42;1.42;;;;;;;26.43;55.21;100857.31;5012866;28;20087;-87
2022/07/25 09:55:44;;;;;;;5.22;1.98;;;;;;;26.46;55.47;100850.91;5012684;28;20038;-87
2022/07/25 09:58:12;;;;;;;2.55;1.80;;;;;;;26.56;53.84;100853.63;5016723;28;20482;-86
2022/07/25 10:00:39;;;;;;;2.20;1.67;;;;;;;26.59;55.41;100862.22;5016094;28;20497;-85
2022/07/25 10:03:15;;;;;;;1.55;1.45;;;;;;;26.75;56.62;100856.44;5014989;28;20474;-85
2022/07/25 10:06:01;;;;;;;1.75;1.65;;;;;;;26.97;55.86;100852.84;4998005;28;20109;-86
2022/07/25 10:08:26;;;;;;;2.60;1.80;;;;;;;27.09;53.66;100847.47;4995700;28;20161;-86
2022/07/25 10:10:52;;;;;;;1.70;1.60;;;;;;;27.10;54.59;100855.31;5013719;28;20100;-86
2022/07/25 10:13:28;;;;;;;1.80;1.70;;;;;;;27.11;55.04;100862.31;4998463;28;20042;-86
2022/07/25 10:15:54;;;;;;;3.90;1.73;;;;;;;27.20;54.78;100865.16;4994785;28;20042;-85
2022/07/25 10:18:22;;;;;;;1.50;1.40;;;;;;;27.37;54.33;100866.38;4995155;28;20031;-86
2022/07/25 10:20:50;;;;;;;1.90;1.80;;;;;;;27.64;53.16;100868.50;4994731;28;20033;-86
2022/07/25 10:23:18;;;;;;;2.05;1.70;;;;;;;27.84;52.72;100863.25;4994854;28;20052;-88
2022/07/25 10:25:43;;;;;;;4.13;1.80;;;;;;;27.95;49.68;100857.78;4996370;28;20049;-86
2022/07/25 10:28:09;;;;;;;;;;;;;;;28.05;51.20;100858.66;4995059;28;20093;-87
2022/07/25 10:30:38;;;;;;;2.50;1.80;;;;;;;28.18;48.59;100850.41;5009111;28;19931;-86
2022/07/25 10:33:11;;;;;;;1.92;1.77;;;;;;;28.08;51.15;100854.03;5016218;28;20042;-86
2022/07/25 10:35:36;;;;;;;1.90;1.80;;;;;;;28.04;51.85;100848.97;5016134;28;20030;-89
2022/07/25 10:38:03;;;;;;;;;;;;;;;28.01;49.52;100867.06;5014315;28;20038;-87
2022/07/25 10:40:47;;;;;;;3.40;1.90;;;;;;;27.88;50.42;100869.97;5015975;28;19952;-85
2022/07/25 10:43:18;;;;;;;1.70;1.60;;;;;;;27.97;50.43;100868.31;5015639;28;20132;-86
2022/07/25 10:45:53;;;;;;;2.58;1.70;;;;;;;28.11;48.94;100875.97;5015607;28;20042;-87
2022/07/25 10:48:24;;;;;;;2.25;1.90;;;;;;;28.19;50.21;100870.78;5015827;28;20084;-88
2022/07/25 10:51:01;;;;;;;1.63;1.52;;;;;;;28.38;49.05;100868.28;5015488;28;20030;-86
2022/07/25 10:53:47;;;;;;;1.83;1.30;;;;;;;28.35;47.72;100866.72;5016230;28;20022;-87
2022/07/25 10:56:15;;;;;;;1.90;1.60;;;;;;;28.20;48.06;100872.47;5015301;28;20026;-86
2022/07/25 10:59:01;;;;;;;1.95;1.75;;;;;;;28.05;48.46;100880.00;5015350;28;20496;-87
2022/07/25 11:01:31;;;;;;;1.70;1.60;;;;;;;28.05;49.74;100877.34;4995926;28;20402;-87
2022/07/25 11:04:13;;;;;;;1.20;1.20;;;;;;;28.13;49.62;100889.16;4995829;28;20117;-88
2022/07/25 11:06:40;;;;;;;1.95;1.58;;;;;;;28.18;48.78;100884.28;4995997;28;20038;-86
2022/07/25 11:09:33;;;;;;;1.42;1.33;;;;;;;28.19;50.57;100889.44;4995620;28;20044;-86
2022/07/25 11:11:59;;;;;;;1.60;1.50;;;;;;;28.27;49.72;100893.25;4991093;28;20113;-88
2022/07/25 11:14:34;;;;;;;1.80;1.50;;;;;;;28.27;47.39;100887.91;5003222;28;20029;-87
2022/07/25 11:17:14;;;;;;;1.73;1.63;;;;;;;28.24;49.23;100891.72;5013936;28;20084;-86
2022/07/25 11:19:42;;;;;;;2.15;1.60;;;;;;;28.20;48.79;100896.47;5015332;28;20121;-86
2022/07/25 11:22:08;;;;;;;1.80;1.70;;;;;;;28.03;49.05;100891.78;5014796;28;20026;-87
2022/07/25 11:24:36;;;;;;;2.00;1.80;;;;;;;27.89;47.32;100893.84;5015025;28;20022;-87
2022/07/25 11:27:02;;;;;;;1.88;1.77;;;;;;;27.73;47.71;100898.84;5014299;28;20026;-86
2022/07/25 11:29:28;;;;;;;2.42;1.88;;;;;;;27.55;49.08;100909.28;5015052;28;20478;-86
2022/07/25 11:31:57;;;;;;;;;;;;;;;27.37;47.92;100903.69;5015351;28;20108;-86